sensor_id;sensor_type;location;lat;lon;timestamp;P1;durP1;ratioP1;P2;durP2;ratioP2
66118;SDS011;52912;48.564;9.302;2022-08-23T00:02:24;3.05;;;2.03;;
66118;SDS011;52912;48.564;9.302;2022-08-23T00:04:51;4.55;;;2.22;;
66118;SDS011;52912;48.564;9.302;2022-08-23T00:07:17;2.83;;;2.00;;
66118;SDS011;52912;48.564;9.302;2022-08-23T00:09:44;6.25;;;2.40;;
66118;SDS011;52912;48.564;9.302;2022-08-23T00:12:11;4.53;;;2.10;;
66118;SDS011;52912;48.564;9.302;2022-08-23T00:17:05;6.43;;;2.30;;
66118;SDS011;52912;48.564;9.302;2022-08-23T00:19:32;6.90;;;2.63;;
66118;SDS011;52912;48.564;9.302;2022-08-23T00:21:57;4.78;;;2.13;;
66118;SDS011;52912;48.564;9.302;2022-08-23T00:24:23;5.18;;;2.30;;
66118;SDS011;52912;48.564;9.302;2022-08-23T00:26:52;7.68;;;2.22;;
66118;SDS011;52912;48.564;9.302;2022-08-23T00:29:22;4.63;;;2.28;;
66118;SDS011;52912;48.564;9.302;2022-08-23T00:31:49;7.75;;;2.00;;
66118;SDS011;52912;48.564;9.302;2022-08-23T00:34:14;4.03;;;2.08;;
66118;SDS011;52912;48.564;9.302;2022-08-23T00:36:40;3.05;;;2.05;;
66118;SDS011;52912;48.564;9.302;2022-08-23T00:39:06;6.63;;;2.10;;
66118;SDS011;52912;48.564;9.302;2022-08-23T00:41:32;5.93;;;2.10;;
66118;SDS011;52912;48.564;9.302;2022-08-23T00:44:00;3.17;;;2.20;;
66118;SDS011;52912;48.564;9.302;2022-08-23T00:46:30;5.53;;;2.13;;
66118;SDS011;52912;48.564;9.302;2022-08-23T00:49:06;4.13;;;2.22;;
66118;SDS011;52912;48.564;9.302;2022-08-23T00:51:35;5.90;;;2.10;;
66118;SDS011;52912;48.564;9.302;2022-08-23T00:54:05;6.70;;;2.10;;
66118;SDS011;52912;48.564;9.302;2022-08-23T00:56:33;3.05;;;2.08;;
66118;SDS011;52912;48.564;9.302;2022-08-23T00:59:02;5.45;;;2.53;;
66118;SDS011;52912;48.564;9.302;2022-08-23T01:01:27;4.20;;;2.33;;
66118;SDS011;52912;48.564;9.302;2022-08-23T01:03:54;3.15;;;2.22;;
66118;SDS011;52912;48.564;9.302;2022-08-23T01:06:23;6.25;;;2.40;;
66118;SDS011;52912;48.564;9.302;2022-08-23T01:08:54;3.63;;;2.38;;
66118;SDS011;52912;48.564;9.302;2022-08-23T01:11:27;4.18;;;2.13;;
66118;SDS011;52912;48.564;9.302;2022-08-23T01:13:58;5.30;;;2.40;;
66118;SDS011;52912;48.564;9.302;2022-08-23T01:16:30;5.20;;;2.42;;
66118;SDS011;52912;48.564;9.302;2022-08-23T01:19:01;5.78;;;2.30;;
66118;SDS011;52912;48.564;9.302;2022-08-23T01:21:30;3.83;;;2.15;;
66118;SDS011;52912;48.564;9.302;2022-08-23T01:24:02;5.43;;;2.60;;
66118;SDS011;52912;48.564;9.302;2022-08-23T01:26:29;4.65;;;2.33;;
66118;SDS011;52912;48.564;9.302;2022-08-23T01:28:56;3.42;;;1.98;;
66118;SDS011;52912;48.564;9.302;2022-08-23T01:31:21;5.20;;;2.60;;
66118;SDS011;52912;48.564;9.302;2022-08-23T01:33:49;5.63;;;2.75;;
66118;SDS011;52912;48.564;9.302;2022-08-23T01:36:20;5.25;;;2.80;;
66118;SDS011;52912;48.564;9.302;2022-08-23T01:38:47;6.50;;;2.90;;
66118;SDS011;52912;48.564;9.302;2022-08-23T01:41:14;4.10;;;2.67;;
66118;SDS011;52912;48.564;9.302;2022-08-23T01:43:40;4.38;;;2.78;;
66118;SDS011;52912;48.564;9.302;2022-08-23T01:46:06;5.13;;;2.42;;
66118;SDS011;52912;48.564;9.302;2022-08-23T01:48:33;5.05;;;2.50;;
66118;SDS011;52912;48.564;9.302;2022-08-23T01:50:58;6.05;;;2.72;;
66118;SDS011;52912;48.564;9.302;2022-08-23T01:53:24;5.10;;;2.70;;
66118;SDS011;52912;48.564;9.302;2022-08-23T01:55:49;6.20;;;2.80;;
66118;SDS011;52912;48.564;9.302;2022-08-23T01:58:16;3.78;;;2.30;;
66118;SDS011;52912;48.564;9.302;2022-08-23T02:00:42;4.53;;;2.20;;
66118;SDS011;52912;48.564;9.302;2022-08-23T02:03:08;3.65;;;2.20;;
66118;SDS011;52912;48.564;9.302;2022-08-23T02:05:34;5.53;;;2.35;;
66118;SDS011;52912;48.564;9.302;2022-08-23T02:07:59;5.30;;;2.60;;
66118;SDS011;52912;48.564;9.302;2022-08-23T02:10:25;3.58;;;2.20;;
66118;SDS011;52912;48.564;9.302;2022-08-23T02:12:50;4.00;;;2.50;;
66118;SDS011;52912;48.564;9.302;2022-08-23T02:15:17;4.03;;;2.60;;
66118;SDS011;52912;48.564;9.302;2022-08-23T02:17:43;7.13;;;3.22;;
66118;SDS011;52912;48.564;9.302;2022-08-23T02:20:09;5.63;;;3.10;;
66118;SDS011;52912;48.564;9.302;2022-08-23T02:22:35;4.18;;;3.00;;
66118;SDS011;52912;48.564;9.302;2022-08-23T02:25:01;7.13;;;2.80;;
66118;SDS011;52912;48.564;9.302;2022-08-23T02:27:29;5.40;;;3.10;;
66118;SDS011;52912;48.564;9.302;2022-08-23T02:29:54;8.20;;;2.70;;
66118;SDS011;52912;48.564;9.302;2022-08-23T02:32:21;4.78;;;2.70;;
66118;SDS011;52912;48.564;9.302;2022-08-23T02:34:47;5.93;;;3.00;;
66118;SDS011;52912;48.564;9.302;2022-08-23T02:37:13;6.65;;;3.15;;
66118;SDS011;52912;48.564;9.302;2022-08-23T02:39:39;5.20;;;2.90;;
66118;SDS011;52912;48.564;9.302;2022-08-23T02:42:05;7.10;;;3.10;;
66118;SDS011;52912;48.564;9.302;2022-08-23T02:44:31;5.95;;;2.80;;
66118;SDS011;52912;48.564;9.302;2022-08-23T02:46:56;5.90;;;3.22;;
66118;SDS011;52912;48.564;9.302;2022-08-23T02:49:23;4.70;;;3.20;;
66118;SDS011;52912;48.564;9.302;2022-08-23T02:51:49;4.95;;;3.10;;
66118;SDS011;52912;48.564;9.302;2022-08-23T02:54:14;4.45;;;3.30;;
66118;SDS011;52912;48.564;9.302;2022-08-23T02:56:40;4.32;;;3.33;;
66118;SDS011;52912;48.564;9.302;2022-08-23T02:59:06;6.53;;;3.38;;
66118;SDS011;52912;48.564;9.302;2022-08-23T03:01:33;3.70;;;2.97;;
66118;SDS011;52912;48.564;9.302;2022-08-23T03:04:00;5.28;;;3.17;;
66118;SDS011;52912;48.564;9.302;2022-08-23T03:06:28;9.45;;;3.50;;
66118;SDS011;52912;48.564;9.302;2022-08-23T03:08:54;7.05;;;3.00;;
66118;SDS011;52912;48.564;9.302;2022-08-23T03:11:20;7.95;;;3.65;;
66118;SDS011;52912;48.564;9.302;2022-08-23T03:13:47;4.13;;;3.00;;
66118;SDS011;52912;48.564;9.302;2022-08-23T03:16:13;5.32;;;3.65;;
66118;SDS011;52912;48.564;9.302;2022-08-23T03:18:39;6.93;;;3.40;;
66118;SDS011;52912;48.564;9.302;2022-08-23T03:21:06;6.70;;;3.10;;
66118;SDS011;52912;48.564;9.302;2022-08-23T03:23:34;6.97;;;3.20;;
66118;SDS011;52912;48.564;9.302;2022-08-23T03:26:01;5.13;;;3.37;;
66118;SDS011;52912;48.564;9.302;2022-08-23T03:28:29;6.88;;;3.33;;
66118;SDS011;52912;48.564;9.302;2022-08-23T03:30:55;5.70;;;3.05;;
66118;SDS011;52912;48.564;9.302;2022-08-23T03:33:21;6.22;;;3.00;;
66118;SDS011;52912;48.564;9.302;2022-08-23T03:35:48;10.60;;;3.47;;
66118;SDS011;52912;48.564;9.302;2022-08-23T03:38:13;4.60;;;2.88;;
66118;SDS011;52912;48.564;9.302;2022-08-23T03:40:41;6.90;;;2.92;;
66118;SDS011;52912;48.564;9.302;2022-08-23T03:43:07;3.38;;;2.50;;
66118;SDS011;52912;48.564;9.302;2022-08-23T03:45:33;6.50;;;2.80;;
66118;SDS011;52912;48.564;9.302;2022-08-23T03:47:58;4.03;;;2.60;;
66118;SDS011;52912;48.564;9.302;2022-08-23T03:50:25;3.95;;;2.70;;
66118;SDS011;52912;48.564;9.302;2022-08-23T03:52:51;4.20;;;2.67;;
66118;SDS011;52912;48.564;9.302;2022-08-23T03:55:16;4.32;;;2.45;;
66118;SDS011;52912;48.564;9.302;2022-08-23T03:57:43;5.80;;;2.80;;
66118;SDS011;52912;48.564;9.302;2022-08-23T04:00:10;4.65;;;2.80;;
66118;SDS011;52912;48.564;9.302;2022-08-23T04:02:37;7.40;;;2.92;;
66118;SDS011;52912;48.564;9.302;2022-08-23T04:05:03;4.45;;;3.03;;
66118;SDS011;52912;48.564;9.302;2022-08-23T04:07:29;7.97;;;3.40;;
66118;SDS011;52912;48.564;9.302;2022-08-23T04:09:55;5.45;;;3.30;;
66118;SDS011;52912;48.564;9.302;2022-08-23T04:12:20;5.82;;;3.33;;
66118;SDS011;52912;48.564;9.302;2022-08-23T04:14:47;7.60;;;3.40;;
66118;SDS011;52912;48.564;9.302;2022-08-23T04:17:14;7.28;;;3.25;;
66118;SDS011;52912;48.564;9.302;2022-08-23T04:19:40;5.97;;;3.42;;
66118;SDS011;52912;48.564;9.302;2022-08-23T04:22:06;6.20;;;3.50;;
66118;SDS011;52912;48.564;9.302;2022-08-23T04:24:35;4.65;;;3.25;;
66118;SDS011;52912;48.564;9.302;2022-08-23T04:27:01;5.00;;;3.33;;
66118;SDS011;52912;48.564;9.302;2022-08-23T04:29:27;6.00;;;3.30;;
66118;SDS011;52912;48.564;9.302;2022-08-23T04:31:54;6.60;;;3.58;;
66118;SDS011;52912;48.564;9.302;2022-08-23T04:34:19;7.93;;;3.45;;
66118;SDS011;52912;48.564;9.302;2022-08-23T04:36:45;5.07;;;3.40;;
66118;SDS011;52912;48.564;9.302;2022-08-23T04:39:10;5.38;;;3.20;;
66118;SDS011;52912;48.564;9.302;2022-08-23T04:41:36;8.80;;;3.28;;
66118;SDS011;52912;48.564;9.302;2022-08-23T04:44:02;4.85;;;3.20;;
66118;SDS011;52912;48.564;9.302;2022-08-23T04:46:27;4.43;;;2.97;;
66118;SDS011;52912;48.564;9.302;2022-08-23T04:48:54;6.82;;;3.22;;
66118;SDS011;52912;48.564;9.302;2022-08-23T04:51:20;4.90;;;3.20;;
66118;SDS011;52912;48.564;9.302;2022-08-23T04:53:45;6.03;;;3.20;;
66118;SDS011;52912;48.564;9.302;2022-08-23T04:56:11;6.57;;;3.17;;
66118;SDS011;52912;48.564;9.302;2022-08-23T04:58:37;5.03;;;3.10;;
66118;SDS011;52912;48.564;9.302;2022-08-23T05:01:04;5.65;;;3.28;;
66118;SDS011;52912;48.564;9.302;2022-08-23T05:03:30;5.43;;;3.37;;
66118;SDS011;52912;48.564;9.302;2022-08-23T05:05:57;7.03;;;3.45;;
66118;SDS011;52912;48.564;9.302;2022-08-23T05:08:23;6.57;;;3.60;;
66118;SDS011;52912;48.564;9.302;2022-08-23T05:10:49;5.78;;;3.40;;
66118;SDS011;52912;48.564;9.302;2022-08-23T05:13:14;7.55;;;3.38;;
66118;SDS011;52912;48.564;9.302;2022-08-23T05:15:40;4.95;;;3.20;;
66118;SDS011;52912;48.564;9.302;2022-08-23T05:18:06;6.25;;;3.90;;
66118;SDS011;52912;48.564;9.302;2022-08-23T05:20:32;6.80;;;3.58;;
66118;SDS011;52912;48.564;9.302;2022-08-23T05:22:59;5.20;;;3.30;;
66118;SDS011;52912;48.564;9.302;2022-08-23T05:25:25;6.00;;;3.42;;
66118;SDS011;52912;48.564;9.302;2022-08-23T05:27:54;7.10;;;3.67;;
66118;SDS011;52912;48.564;9.302;2022-08-23T05:30:20;6.88;;;3.42;;
66118;SDS011;52912;48.564;9.302;2022-08-23T05:32:45;6.07;;;3.53;;
66118;SDS011;52912;48.564;9.302;2022-08-23T05:35:10;7.40;;;3.30;;
66118;SDS011;52912;48.564;9.302;2022-08-23T05:37:36;9.95;;;3.28;;
66118;SDS011;52912;48.564;9.302;2022-08-23T05:40:03;7.13;;;3.20;;
66118;SDS011;52912;48.564;9.302;2022-08-23T05:42:29;9.95;;;3.42;;
66118;SDS011;52912;48.564;9.302;2022-08-23T05:44:55;5.38;;;3.15;;
66118;SDS011;52912;48.564;9.302;2022-08-23T05:47:20;5.43;;;3.00;;
66118;SDS011;52912;48.564;9.302;2022-08-23T05:49:46;6.07;;;3.28;;
66118;SDS011;52912;48.564;9.302;2022-08-23T05:52:12;4.65;;;3.03;;
66118;SDS011;52912;48.564;9.302;2022-08-23T05:54:38;7.13;;;3.20;;
66118;SDS011;52912;48.564;9.302;2022-08-23T05:57:05;8.38;;;3.20;;
66118;SDS011;52912;48.564;9.302;2022-08-23T05:59:31;8.13;;;3.50;;
66118;SDS011;52912;48.564;9.302;2022-08-23T06:01:58;7.25;;;3.20;;
66118;SDS011;52912;48.564;9.302;2022-08-23T06:04:23;7.55;;;3.22;;
66118;SDS011;52912;48.564;9.302;2022-08-23T06:06:49;6.25;;;2.97;;
66118;SDS011;52912;48.564;9.302;2022-08-23T06:09:16;6.97;;;3.05;;
66118;SDS011;52912;48.564;9.302;2022-08-23T06:11:42;6.57;;;3.40;;
66118;SDS011;52912;48.564;9.302;2022-08-23T06:14:10;5.85;;;3.13;;
66118;SDS011;52912;48.564;9.302;2022-08-23T06:16:37;7.53;;;3.50;;
66118;SDS011;52912;48.564;9.302;2022-08-23T06:19:05;4.27;;;3.37;;
66118;SDS011;52912;48.564;9.302;2022-08-23T06:21:32;5.47;;;3.00;;
66118;SDS011;52912;48.564;9.302;2022-08-23T06:23:57;6.93;;;3.42;;
66118;SDS011;52912;48.564;9.302;2022-08-23T06:26:24;4.47;;;2.67;;
66118;SDS011;52912;48.564;9.302;2022-08-23T06:28:51;4.60;;;2.60;;
66118;SDS011;52912;48.564;9.302;2022-08-23T06:31:19;4.60;;;2.70;;
66118;SDS011;52912;48.564;9.302;2022-08-23T06:33:47;3.95;;;2.63;;
66118;SDS011;52912;48.564;9.302;2022-08-23T06:36:12;6.55;;;2.90;;
66118;SDS011;52912;48.564;9.302;2022-08-23T06:38:38;3.85;;;2.70;;
66118;SDS011;52912;48.564;9.302;2022-08-23T06:41:05;4.53;;;2.70;;
66118;SDS011;52912;48.564;9.302;2022-08-23T06:43:33;5.53;;;2.85;;
66118;SDS011;52912;48.564;9.302;2022-08-23T06:46:06;7.20;;;3.03;;
66118;SDS011;52912;48.564;9.302;2022-08-23T06:48:34;4.50;;;2.80;;
66118;SDS011;52912;48.564;9.302;2022-08-23T06:51:00;8.75;;;3.08;;
66118;SDS011;52912;48.564;9.302;2022-08-23T06:53:25;7.32;;;2.63;;
66118;SDS011;52912;48.564;9.302;2022-08-23T06:55:51;6.15;;;3.00;;
66118;SDS011;52912;48.564;9.302;2022-08-23T06:58:16;6.50;;;2.90;;
66118;SDS011;52912;48.564;9.302;2022-08-23T07:00:42;5.90;;;3.08;;
66118;SDS011;52912;48.564;9.302;2022-08-23T07:03:08;6.18;;;3.10;;
66118;SDS011;52912;48.564;9.302;2022-08-23T07:05:34;6.47;;;2.83;;
66118;SDS011;52912;48.564;9.302;2022-08-23T07:08:00;14.25;;;3.30;;
66118;SDS011;52912;48.564;9.302;2022-08-23T07:10:26;5.32;;;3.00;;
66118;SDS011;52912;48.564;9.302;2022-08-23T07:12:51;6.40;;;3.10;;
66118;SDS011;52912;48.564;9.302;2022-08-23T07:15:17;4.57;;;2.75;;
66118;SDS011;52912;48.564;9.302;2022-08-23T07:17:43;6.07;;;3.10;;
66118;SDS011;52912;48.564;9.302;2022-08-23T07:20:08;4.38;;;2.63;;
66118;SDS011;52912;48.564;9.302;2022-08-23T07:22:36;7.25;;;2.67;;
66118;SDS011;52912;48.564;9.302;2022-08-23T07:25:01;5.50;;;2.75;;
66118;SDS011;52912;48.564;9.302;2022-08-23T07:27:27;5.53;;;2.80;;
66118;SDS011;52912;48.564;9.302;2022-08-23T07:29:53;5.88;;;2.70;;
66118;SDS011;52912;48.564;9.302;2022-08-23T07:32:19;6.07;;;3.03;;
66118;SDS011;52912;48.564;9.302;2022-08-23T07:34:44;4.25;;;2.53;;
66118;SDS011;52912;48.564;9.302;2022-08-23T07:37:10;5.18;;;2.85;;
66118;SDS011;52912;48.564;9.302;2022-08-23T07:39:37;5.80;;;2.85;;
66118;SDS011;52912;48.564;9.302;2022-08-23T07:42:02;7.00;;;2.92;;
66118;SDS011;52912;48.564;9.302;2022-08-23T07:44:28;5.53;;;2.90;;
66118;SDS011;52912;48.564;9.302;2022-08-23T07:46:54;8.93;;;3.28;;
66118;SDS011;52912;48.564;9.302;2022-08-23T07:49:20;9.13;;;3.75;;
66118;SDS011;52912;48.564;9.302;2022-08-23T07:51:46;7.43;;;3.10;;
66118;SDS011;52912;48.564;9.302;2022-08-23T07:54:12;9.35;;;3.70;;
66118;SDS011;52912;48.564;9.302;2022-08-23T07:56:40;5.78;;;3.60;;
66118;SDS011;52912;48.564;9.302;2022-08-23T07:59:06;5.85;;;2.90;;
66118;SDS011;52912;48.564;9.302;2022-08-23T08:01:32;7.18;;;3.38;;
66118;SDS011;52912;48.564;9.302;2022-08-23T08:03:58;6.85;;;3.20;;
66118;SDS011;52912;48.564;9.302;2022-08-23T08:06:26;7.15;;;3.17;;
66118;SDS011;52912;48.564;9.302;2022-08-23T08:08:54;6.15;;;3.42;;
66118;SDS011;52912;48.564;9.302;2022-08-23T08:11:21;9.82;;;2.92;;
66118;SDS011;52912;48.564;9.302;2022-08-23T08:13:50;5.95;;;3.10;;
66118;SDS011;52912;48.564;9.302;2022-08-23T08:16:20;6.40;;;3.00;;
66118;SDS011;52912;48.564;9.302;2022-08-23T08:18:47;4.22;;;2.80;;
66118;SDS011;52912;48.564;9.302;2022-08-23T08:21:12;7.53;;;2.90;;
66118;SDS011;52912;48.564;9.302;2022-08-23T08:23:40;5.35;;;3.10;;
66118;SDS011;52912;48.564;9.302;2022-08-23T08:26:06;7.68;;;3.08;;
66118;SDS011;52912;48.564;9.302;2022-08-23T08:28:33;7.63;;;2.80;;
66118;SDS011;52912;48.564;9.302;2022-08-23T08:31:00;6.18;;;2.95;;
66118;SDS011;52912;48.564;9.302;2022-08-23T08:33:26;4.97;;;2.97;;
66118;SDS011;52912;48.564;9.302;2022-08-23T08:35:51;4.68;;;2.83;;
66118;SDS011;52912;48.564;9.302;2022-08-23T08:38:17;6.95;;;2.85;;
66118;SDS011;52912;48.564;9.302;2022-08-23T08:40:43;7.50;;;2.75;;
66118;SDS011;52912;48.564;9.302;2022-08-23T08:43:13;4.78;;;2.60;;
66118;SDS011;52912;48.564;9.302;2022-08-23T08:45:51;5.25;;;2.80;;
66118;SDS011;52912;48.564;9.302;2022-08-23T08:48:27;8.10;;;3.28;;
66118;SDS011;52912;48.564;9.302;2022-08-23T08:51:00;5.57;;;2.70;;
66118;SDS011;52912;48.564;9.302;2022-08-23T08:53:31;8.32;;;2.70;;
66118;SDS011;52912;48.564;9.302;2022-08-23T08:56:00;7.82;;;2.85;;
66118;SDS011;52912;48.564;9.302;2022-08-23T08:58:32;6.63;;;3.00;;
66118;SDS011;52912;48.564;9.302;2022-08-23T09:01:06;5.15;;;2.85;;
66118;SDS011;52912;48.564;9.302;2022-08-23T09:03:33;5.53;;;2.55;;
66118;SDS011;52912;48.564;9.302;2022-08-23T09:06:00;7.70;;;2.65;;
66118;SDS011;52912;48.564;9.302;2022-08-23T09:08:37;5.85;;;2.75;;
66118;SDS011;52912;48.564;9.302;2022-08-23T09:11:10;6.00;;;2.70;;
66118;SDS011;52912;48.564;9.302;2022-08-23T09:13:45;4.30;;;2.40;;
66118;SDS011;52912;48.564;9.302;2022-08-23T09:16:26;5.82;;;2.60;;
66118;SDS011;52912;48.564;9.302;2022-08-23T09:19:01;7.05;;;2.92;;
66118;SDS011;52912;48.564;9.302;2022-08-23T09:21:38;3.83;;;2.33;;
66118;SDS011;52912;48.564;9.302;2022-08-23T09:24:07;8.77;;;2.35;;
66118;SDS011;52912;48.564;9.302;2022-08-23T09:26:33;5.13;;;2.30;;
66118;SDS011;52912;48.564;9.302;2022-08-23T09:28:59;4.32;;;2.42;;
66118;SDS011;52912;48.564;9.302;2022-08-23T09:31:38;2.85;;;2.10;;
66118;SDS011;52912;48.564;9.302;2022-08-23T09:34:05;3.60;;;2.22;;
66118;SDS011;52912;48.564;9.302;2022-08-23T09:36:31;5.00;;;2.20;;
66118;SDS011;52912;48.564;9.302;2022-08-23T09:38:59;8.35;;;2.45;;
66118;SDS011;52912;48.564;9.302;2022-08-23T09:43:53;3.60;;;2.10;;
66118;SDS011;52912;48.564;9.302;2022-08-23T09:46:24;4.80;;;2.25;;
66118;SDS011;52912;48.564;9.302;2022-08-23T09:48:53;5.60;;;2.15;;
66118;SDS011;52912;48.564;9.302;2022-08-23T09:51:21;6.60;;;2.33;;
66118;SDS011;52912;48.564;9.302;2022-08-23T09:53:50;5.65;;;2.20;;
66118;SDS011;52912;48.564;9.302;2022-08-23T09:56:26;5.85;;;2.00;;
66118;SDS011;52912;48.564;9.302;2022-08-23T09:58:52;5.38;;;2.25;;
66118;SDS011;52912;48.564;9.302;2022-08-23T10:01:18;3.42;;;2.00;;
66118;SDS011;52912;48.564;9.302;2022-08-23T10:03:57;6.05;;;2.20;;
66118;SDS011;52912;48.564;9.302;2022-08-23T10:06:35;4.80;;;2.38;;
66118;SDS011;52912;48.564;9.302;2022-08-23T10:09:02;4.55;;;2.10;;
66118;SDS011;52912;48.564;9.302;2022-08-23T10:11:29;4.22;;;2.10;;
66118;SDS011;52912;48.564;9.302;2022-08-23T10:13:58;2.47;;;1.83;;
66118;SDS011;52912;48.564;9.302;2022-08-23T10:16:26;5.18;;;1.90;;
66118;SDS011;52912;48.564;9.302;2022-08-23T10:19:02;5.53;;;2.13;;
66118;SDS011;52912;48.564;9.302;2022-08-23T10:21:37;5.03;;;1.98;;
66118;SDS011;52912;48.564;9.302;2022-08-23T10:24:09;4.03;;;2.00;;
66118;SDS011;52912;48.564;9.302;2022-08-23T10:26:45;4.22;;;1.90;;
66118;SDS011;52912;48.564;9.302;2022-08-23T10:29:31;6.03;;;2.10;;
66118;SDS011;52912;48.564;9.302;2022-08-23T10:32:02;7.53;;;2.30;;
66118;SDS011;52912;48.564;9.302;2022-08-23T10:34:40;5.72;;;2.15;;
66118;SDS011;52912;48.564;9.302;2022-08-23T10:37:23;4.57;;;2.28;;
66118;SDS011;52912;48.564;9.302;2022-08-23T10:40:03;3.95;;;1.98;;
66118;SDS011;52912;48.564;9.302;2022-08-23T10:42:37;3.72;;;2.13;;
66118;SDS011;52912;48.564;9.302;2022-08-23T10:45:09;4.28;;;2.00;;
66118;SDS011;52912;48.564;9.302;2022-08-23T10:47:44;6.60;;;2.13;;
66118;SDS011;52912;48.564;9.302;2022-08-23T10:50:19;4.68;;;2.00;;
66118;SDS011;52912;48.564;9.302;2022-08-23T10:52:49;5.28;;;1.80;;
66118;SDS011;52912;48.564;9.302;2022-08-23T10:55:20;5.60;;;2.00;;
66118;SDS011;52912;48.564;9.302;2022-08-23T10:57:50;5.35;;;2.10;;
66118;SDS011;52912;48.564;9.302;2022-08-23T11:00:18;4.53;;;1.92;;
66118;SDS011;52912;48.564;9.302;2022-08-23T11:02:48;3.15;;;2.03;;
66118;SDS011;52912;48.564;9.302;2022-08-23T11:05:22;4.70;;;1.90;;
66118;SDS011;52912;48.564;9.302;2022-08-23T11:08:01;3.33;;;1.80;;
66118;SDS011;52912;48.564;9.302;2022-08-23T11:10:30;4.70;;;2.15;;
66118;SDS011;52912;48.564;9.302;2022-08-23T11:13:07;9.20;;;2.03;;
66118;SDS011;52912;48.564;9.302;2022-08-23T11:15:53;2.13;;;1.60;;
66118;SDS011;52912;48.564;9.302;2022-08-23T11:18:34;4.13;;;1.90;;
66118;SDS011;52912;48.564;9.302;2022-08-23T11:21:06;5.20;;;2.17;;
66118;SDS011;52912;48.564;9.302;2022-08-23T11:23:38;5.10;;;1.98;;
66118;SDS011;52912;48.564;9.302;2022-08-23T11:29:36;3.88;;;2.00;;
66118;SDS011;52912;48.564;9.302;2022-08-23T11:32:20;4.22;;;1.83;;
66118;SDS011;52912;48.564;9.302;2022-08-23T11:34:50;6.35;;;2.10;;
66118;SDS011;52912;48.564;9.302;2022-08-23T11:37:28;2.20;;;1.73;;
66118;SDS011;52912;48.564;9.302;2022-08-23T11:40:15;4.97;;;2.10;;
66118;SDS011;52912;48.564;9.302;2022-08-23T11:43:02;4.32;;;2.00;;
66118;SDS011;52912;48.564;9.302;2022-08-23T11:45:38;6.07;;;2.25;;
66118;SDS011;52912;48.564;9.302;2022-08-23T11:48:13;4.95;;;2.10;;
66118;SDS011;52912;48.564;9.302;2022-08-23T11:50:44;3.90;;;1.90;;
66118;SDS011;52912;48.564;9.302;2022-08-23T11:53:24;4.75;;;2.08;;
66118;SDS011;52912;48.564;9.302;2022-08-23T11:56:09;2.95;;;1.67;;
66118;SDS011;52912;48.564;9.302;2022-08-23T11:58:55;2.97;;;1.63;;
66118;SDS011;52912;48.564;9.302;2022-08-23T12:01:28;2.67;;;1.42;;
66118;SDS011;52912;48.564;9.302;2022-08-23T12:03:57;3.10;;;1.65;;
66118;SDS011;52912;48.564;9.302;2022-08-23T12:06:35;2.05;;;1.60;;
66118;SDS011;52912;48.564;9.302;2022-08-23T12:09:11;3.35;;;1.55;;
66118;SDS011;52912;48.564;9.302;2022-08-23T12:12:08;2.28;;;1.50;;
66118;SDS011;52912;48.564;9.302;2022-08-23T12:14:47;2.78;;;1.48;;
66118;SDS011;52912;48.564;9.302;2022-08-23T12:20:21;3.25;;;1.60;;
66118;SDS011;52912;48.564;9.302;2022-08-23T12:22:55;4.68;;;1.83;;
66118;SDS011;52912;48.564;9.302;2022-08-23T12:25:31;4.15;;;2.13;;
66118;SDS011;52912;48.564;9.302;2022-08-23T12:28:00;4.70;;;1.70;;
66118;SDS011;52912;48.564;9.302;2022-08-23T12:30:35;2.75;;;1.63;;
66118;SDS011;52912;48.564;9.302;2022-08-23T12:33:08;4.85;;;1.85;;
66118;SDS011;52912;48.564;9.302;2022-08-23T12:35:45;3.58;;;1.63;;
66118;SDS011;52912;48.564;9.302;2022-08-23T12:38:16;3.00;;;1.75;;
66118;SDS011;52912;48.564;9.302;2022-08-23T12:40:51;4.40;;;1.90;;
66118;SDS011;52912;48.564;9.302;2022-08-23T12:48:13;2.80;;;1.70;;
66118;SDS011;52912;48.564;9.302;2022-08-23T12:53:10;3.67;;;1.77;;
66118;SDS011;52912;48.564;9.302;2022-08-23T12:55:38;2.80;;;1.67;;
66118;SDS011;52912;48.564;9.302;2022-08-23T12:58:07;4.00;;;1.80;;
66118;SDS011;52912;48.564;9.302;2022-08-23T13:00:38;2.40;;;1.70;;
66118;SDS011;52912;48.564;9.302;2022-08-23T13:03:07;2.63;;;1.70;;
66118;SDS011;52912;48.564;9.302;2022-08-23T13:05:40;2.72;;;2.00;;
66118;SDS011;52912;48.564;9.302;2022-08-23T13:08:10;3.22;;;1.80;;
66118;SDS011;52912;48.564;9.302;2022-08-23T13:10:42;4.10;;;1.73;;
66118;SDS011;52912;48.564;9.302;2022-08-23T13:13:09;3.42;;;1.80;;
66118;SDS011;52912;48.564;9.302;2022-08-23T13:18:27;5.32;;;2.10;;
66118;SDS011;52912;48.564;9.302;2022-08-23T13:21:15;7.88;;;1.98;;
66118;SDS011;52912;48.564;9.302;2022-08-23T13:23:58;3.70;;;1.90;;
66118;SDS011;52912;48.564;9.302;2022-08-23T13:29:05;3.58;;;2.05;;
66118;SDS011;52912;48.564;9.302;2022-08-23T13:31:54;6.00;;;1.80;;
66118;SDS011;52912;48.564;9.302;2022-08-23T13:34:35;4.00;;;1.70;;
66118;SDS011;52912;48.564;9.302;2022-08-23T13:37:03;4.78;;;2.10;;
66118;SDS011;52912;48.564;9.302;2022-08-23T13:39:43;3.58;;;2.05;;
66118;SDS011;52912;48.564;9.302;2022-08-23T13:42:10;2.72;;;1.80;;
66118;SDS011;52912;48.564;9.302;2022-08-23T13:44:36;3.97;;;2.03;;
66118;SDS011;52912;48.564;9.302;2022-08-23T13:47:03;3.63;;;2.22;;
66118;SDS011;52912;48.564;9.302;2022-08-23T13:49:30;4.60;;;2.00;;
66118;SDS011;52912;48.564;9.302;2022-08-23T13:52:05;3.75;;;1.80;;
66118;SDS011;52912;48.564;9.302;2022-08-23T13:54:33;5.18;;;1.90;;
66118;SDS011;52912;48.564;9.302;2022-08-23T13:56:59;3.78;;;2.08;;
66118;SDS011;52912;48.564;9.302;2022-08-23T13:59:27;5.07;;;2.30;;
66118;SDS011;52912;48.564;9.302;2022-08-23T14:01:56;3.35;;;1.80;;
66118;SDS011;52912;48.564;9.302;2022-08-23T14:04:24;3.50;;;1.98;;
66118;SDS011;52912;48.564;9.302;2022-08-23T14:06:49;5.38;;;1.95;;
66118;SDS011;52912;48.564;9.302;2022-08-23T14:09:15;3.15;;;1.92;;
66118;SDS011;52912;48.564;9.302;2022-08-23T14:11:41;3.28;;;2.03;;
66118;SDS011;52912;48.564;9.302;2022-08-23T14:14:07;5.68;;;2.15;;
66118;SDS011;52912;48.564;9.302;2022-08-23T14:16:35;5.43;;;1.98;;
66118;SDS011;52912;48.564;9.302;2022-08-23T14:19:02;6.15;;;2.28;;
66118;SDS011;52912;48.564;9.302;2022-08-23T14:21:30;2.72;;;1.80;;
66118;SDS011;52912;48.564;9.302;2022-08-23T14:23:55;6.00;;;2.13;;
66118;SDS011;52912;48.564;9.302;2022-08-23T14:26:21;2.67;;;1.75;;
66118;SDS011;52912;48.564;9.302;2022-08-23T14:28:47;3.25;;;1.77;;
66118;SDS011;52912;48.564;9.302;2022-08-23T14:31:12;3.40;;;1.90;;
66118;SDS011;52912;48.564;9.302;2022-08-23T14:33:38;2.95;;;1.77;;
66118;SDS011;52912;48.564;9.302;2022-08-23T14:36:04;4.13;;;1.85;;
66118;SDS011;52912;48.564;9.302;2022-08-23T14:38:32;3.67;;;2.00;;
66118;SDS011;52912;48.564;9.302;2022-08-23T14:40:58;3.42;;;1.90;;
66118;SDS011;52912;48.564;9.302;2022-08-23T14:43:26;4.18;;;2.20;;
66118;SDS011;52912;48.564;9.302;2022-08-23T14:45:52;4.72;;;1.70;;
66118;SDS011;52912;48.564;9.302;2022-08-23T14:48:18;3.50;;;2.00;;
66118;SDS011;52912;48.564;9.302;2022-08-23T14:50:44;2.85;;;1.70;;
66118;SDS011;52912;48.564;9.302;2022-08-23T14:53:10;3.60;;;1.90;;
66118;SDS011;52912;48.564;9.302;2022-08-23T14:55:39;5.07;;;1.80;;
66118;SDS011;52912;48.564;9.302;2022-08-23T14:58:04;3.83;;;1.80;;
66118;SDS011;52912;48.564;9.302;2022-08-23T15:00:30;3.78;;;1.80;;
66118;SDS011;52912;48.564;9.302;2022-08-23T15:02:57;3.10;;;2.10;;
66118;SDS011;52912;48.564;9.302;2022-08-23T15:05:22;10.43;;;1.95;;
66118;SDS011;52912;48.564;9.302;2022-08-23T15:07:48;5.15;;;1.90;;
66118;SDS011;52912;48.564;9.302;2022-08-23T15:10:14;3.92;;;1.85;;
66118;SDS011;52912;48.564;9.302;2022-08-23T15:12:41;3.42;;;1.90;;
66118;SDS011;52912;48.564;9.302;2022-08-23T15:15:08;4.43;;;1.92;;
66118;SDS011;52912;48.564;9.302;2022-08-23T15:17:36;4.55;;;1.77;;
66118;SDS011;52912;48.564;9.302;2022-08-23T15:20:07;3.53;;;2.05;;
66118;SDS011;52912;48.564;9.302;2022-08-23T15:22:33;3.85;;;1.73;;